createdAt,value
2023-05-01T00:01:06.059Z,49.20
2023-05-01T00:03:34.044Z,49.17
2023-05-01T00:06:04.319Z,49.12
2023-05-01T00:08:32.405Z,49.19
2023-05-01T00:11:09.814Z,49.17
2023-05-01T00:13:37.515Z,49.08
2023-05-01T00:16:10.032Z,48.87
2023-05-01T00:18:37.492Z,49.15
2023-05-01T00:21:05.336Z,48.91
2023-05-01T00:23:32.729Z,49.20
2023-05-01T00:26:00.153Z,49.51
2023-05-01T00:28:27.836Z,49.65
2023-05-01T00:30:55.438Z,49.63
2023-05-01T00:33:22.812Z,49.85
2023-05-01T00:35:51.434Z,49.63
2023-05-01T00:38:18.954Z,49.88
2023-05-01T00:40:47.230Z,50.06
2023-05-01T00:43:14.971Z,50.38
2023-05-01T00:45:45.334Z,50.41
2023-05-01T00:48:13.068Z,50.44
2023-05-01T00:50:41.107Z,50.35
2023-05-01T00:53:08.877Z,50.54
2023-05-01T00:55:37.195Z,50.68
2023-05-01T00:58:05.094Z,50.81
2023-05-01T01:00:32.665Z,50.45
2023-05-01T01:03:00.151Z,50.81
2023-05-01T01:05:30.746Z,51.00
2023-05-01T01:08:30.706Z,51.14
2023-05-01T01:11:19.798Z,51.50
2023-05-01T01:13:58.377Z,51.86
2023-05-01T01:16:39.043Z,51.94
2023-05-01T01:19:54.501Z,51.80
2023-05-01T01:22:24.218Z,52.18
2023-05-01T01:25:19.598Z,52.44
2023-05-01T01:28:05.765Z,52.79
2023-05-01T01:30:48.345Z,52.90
2023-05-01T01:33:49.572Z,53.06
2023-05-01T01:36:41.189Z,53.11
2023-05-01T01:39:21.038Z,52.98
2023-05-01T01:41:51.469Z,53.24
2023-05-01T01:44:27.985Z,53.42
2023-05-01T01:46:55.529Z,53.54
2023-05-01T01:49:26.682Z,53.54
2023-05-01T01:51:55.227Z,53.53
2023-05-01T01:54:30.804Z,53.71
2023-05-01T01:56:59.878Z,53.63
2023-05-01T01:59:31.060Z,53.69
2023-05-01T02:01:59.068Z,54.02
2023-05-01T02:04:28.272Z,54.15
2023-05-01T02:06:58.289Z,54.08
2023-05-01T02:09:27.047Z,54.35
2023-05-01T02:11:55.950Z,54.61
2023-05-01T02:14:26.185Z,54.63
2023-05-01T02:16:54.041Z,54.67
2023-05-01T02:19:22.430Z,54.54
2023-05-01T02:21:50.700Z,54.31
2023-05-01T02:24:19.800Z,54.46
2023-05-01T02:26:50.350Z,54.81
2023-05-01T02:29:18.202Z,54.79
2023-05-01T02:31:45.601Z,54.35
2023-05-01T02:34:13.117Z,54.17
2023-05-01T02:36:40.920Z,54.33
2023-05-01T02:39:08.492Z,54.42
2023-05-01T02:41:37.162Z,54.03
2023-05-01T02:44:06.535Z,54.34
2023-05-01T02:46:36.918Z,54.42
2023-05-01T02:49:05.964Z,54.43
2023-05-01T02:51:35.069Z,54.93
2023-05-01T02:54:03.306Z,55.15
2023-05-01T02:56:31.466Z,54.93
2023-05-01T02:58:58.864Z,54.68
2023-05-01T03:01:27.936Z,55.01
2023-05-01T03:03:55.824Z,55.10
2023-05-01T03:06:23.368Z,55.02
2023-05-01T03:08:51.512Z,55.14
2023-05-01T03:11:19.157Z,55.18
2023-05-01T03:13:47.625Z,54.53
2023-05-01T03:16:15.141Z,55.25
2023-05-01T03:18:42.863Z,55.22
2023-05-01T03:21:10.265Z,55.24
2023-05-01T03:23:38.371Z,55.36
2023-05-01T03:26:07.725Z,55.33
2023-05-01T03:28:35.167Z,54.95
2023-05-01T03:31:02.751Z,55.07
2023-05-01T03:33:31.696Z,54.94
2023-05-01T03:36:03.762Z,54.74
2023-05-01T03:38:32.155Z,55.04
2023-05-01T03:41:02.669Z,53.44
2023-05-01T03:43:32.255Z,53.74
2023-05-01T03:46:00.960Z,54.23
2023-05-01T03:48:28.760Z,54.51
2023-05-01T03:50:58.310Z,54.34
2023-05-01T03:53:26.106Z,54.37
2023-05-01T03:55:53.631Z,54.04
2023-05-01T03:58:22.249Z,53.12
2023-05-01T04:00:51.078Z,51.39
2023-05-01T04:03:19.166Z,50.12
2023-05-01T04:05:47.374Z,49.39
2023-05-01T04:08:14.897Z,48.62
2023-05-01T04:10:42.571Z,48.68
2023-05-01T04:13:10.825Z,48.30
2023-05-01T04:15:39.100Z,47.75
2023-05-01T04:18:06.884Z,46.96
2023-05-01T04:20:35.755Z,46.97
2023-05-01T04:23:03.316Z,46.23
2023-05-01T04:25:31.128Z,46.26
2023-05-01T04:27:59.866Z,45.91
2023-05-01T04:30:27.347Z,45.21
2023-05-01T04:32:55.244Z,45.73
2023-05-01T04:35:23.591Z,45.66
2023-05-01T04:37:51.713Z,45.52
2023-05-01T04:40:19.468Z,45.25
2023-05-01T04:42:47.354Z,44.83
2023-05-01T04:45:14.967Z,44.89
2023-05-01T04:47:42.765Z,44.88
2023-05-01T04:50:10.814Z,44.49
2023-05-01T04:52:38.610Z,44.48
2023-05-01T04:55:07.050Z,43.99
2023-05-01T04:57:35.369Z,44.22
2023-05-01T05:00:05.625Z,44.25
2023-05-01T05:02:34.016Z,43.81
2023-05-01T05:05:01.670Z,43.46
2023-05-01T05:07:29.178Z,43.38
2023-05-01T05:09:59.610Z,43.35
2023-05-01T05:12:27.132Z,43.43
2023-05-01T05:14:54.640Z,43.10
2023-05-01T05:17:22.417Z,43.13
2023-05-01T05:19:49.943Z,42.65
2023-05-01T05:22:17.485Z,42.82
2023-05-01T05:24:47.637Z,42.92
2023-05-01T05:27:15.905Z,42.31
2023-05-01T05:29:43.363Z,42.27
2023-05-01T05:32:11.578Z,42.04
2023-05-01T05:34:39.321Z,41.64
2023-05-01T05:37:07.098Z,41.95
2023-05-01T05:39:37.963Z,41.06
2023-05-01T05:42:06.049Z,40.21
2023-05-01T05:44:35.936Z,40.29
2023-05-01T05:47:03.960Z,41.07
2023-05-01T05:49:33.933Z,41.22
2023-05-01T05:52:01.496Z,40.67
2023-05-01T05:54:30.000Z,40.11
2023-05-01T05:56:57.530Z,39.40
2023-05-01T05:59:25.415Z,39.45
2023-05-01T06:01:53.190Z,39.12
2023-05-01T06:04:20.929Z,39.28
2023-05-01T06:06:49.108Z,38.97
2023-05-01T06:09:19.167Z,39.36
2023-05-01T06:11:47.731Z,38.27
2023-05-01T06:14:16.707Z,38.30
2023-05-01T06:16:44.530Z,38.66
2023-05-01T06:19:12.878Z,38.41
2023-05-01T06:21:40.664Z,38.02
2023-05-01T06:24:09.892Z,37.08
2023-05-01T06:26:37.781Z,35.18
2023-05-01T06:29:05.302Z,35.04
2023-05-01T06:31:32.976Z,34.91
2023-05-01T06:34:00.750Z,35.09
2023-05-01T06:36:28.567Z,34.43
2023-05-01T06:38:56.684Z,34.35
2023-05-01T06:41:25.808Z,33.97
2023-05-01T06:43:53.352Z,33.56
2023-05-01T06:46:20.846Z,32.57
2023-05-01T06:48:48.884Z,32.35
2023-05-01T06:51:16.451Z,31.74
2023-05-01T06:53:43.866Z,30.81
2023-05-01T06:56:11.555Z,30.67
2023-05-01T06:58:38.983Z,29.99
2023-05-01T07:01:07.416Z,29.67
2023-05-01T07:03:35.239Z,29.28
2023-05-01T07:06:02.790Z,29.02
2023-05-01T07:08:30.805Z,28.87
2023-05-01T07:10:58.670Z,29.53
2023-05-01T07:13:27.417Z,29.03
2023-05-01T07:15:55.224Z,28.73
2023-05-01T07:18:23.420Z,28.71
2023-05-01T07:20:50.897Z,28.43
2023-05-01T07:23:18.374Z,27.86
2023-05-01T07:25:46.376Z,28.16
2023-05-01T07:28:13.825Z,28.03
2023-05-01T07:30:41.768Z,28.00
2023-05-01T07:33:09.689Z,27.78
2023-05-01T07:35:37.666Z,26.94
2023-05-01T07:38:05.165Z,27.06
2023-05-01T07:40:34.875Z,27.65
2023-05-01T07:43:02.637Z,27.48
2023-05-01T07:45:30.096Z,26.94
2023-05-01T07:47:57.897Z,26.50
2023-05-01T07:50:26.036Z,26.32
2023-05-01T07:52:53.798Z,26.47
2023-05-01T07:55:22.748Z,26.25
2023-05-01T07:57:50.653Z,26.80
2023-05-01T08:00:18.773Z,26.49
2023-05-01T08:02:46.591Z,26.82
2023-05-01T08:05:14.339Z,26.63
2023-05-01T08:07:41.708Z,26.71
2023-05-01T08:10:09.666Z,26.23
2023-05-01T08:12:37.101Z,26.20
2023-05-01T08:15:05.269Z,26.35
2023-05-01T08:17:33.020Z,26.58
2023-05-01T08:20:04.430Z,26.11
2023-05-01T08:22:32.108Z,26.01
2023-05-01T08:24:59.775Z,26.19
2023-05-01T08:27:27.399Z,25.95
2023-05-01T08:29:55.082Z,26.77
2023-05-01T08:32:22.929Z,26.51
2023-05-01T08:34:50.317Z,25.96
2023-05-01T08:37:19.143Z,25.88
2023-05-01T08:39:46.801Z,26.25
2023-05-01T08:42:14.316Z,26.03
2023-05-01T08:44:43.013Z,26.51
2023-05-01T08:47:13.336Z,26.41
2023-05-01T08:49:42.026Z,26.12
2023-05-01T08:52:12.031Z,25.67
2023-05-01T08:54:42.806Z,25.89
2023-05-01T08:57:11.476Z,26.08
2023-05-01T08:59:39.978Z,25.58
2023-05-01T09:02:09.494Z,25.64
2023-05-01T09:04:40.952Z,25.54
2023-05-01T09:07:10.090Z,26.35
2023-05-01T09:09:37.573Z,25.82
2023-05-01T09:12:25.926Z,26.10
2023-05-01T09:14:54.924Z,25.51
2023-05-01T09:17:23.747Z,25.77
2023-05-01T09:19:51.434Z,25.48
2023-05-01T09:22:19.545Z,25.39
2023-05-01T09:24:47.087Z,25.53
2023-05-01T09:27:15.116Z,25.67
2023-05-01T09:29:44.493Z,25.55
2023-05-01T09:32:21.223Z,25.44
2023-05-01T09:34:49.983Z,25.12
2023-05-01T09:37:31.649Z,25.15
2023-05-01T09:40:13.565Z,25.13
2023-05-01T09:42:49.338Z,25.89
2023-05-01T09:45:17.441Z,25.13
2023-05-01T09:47:48.026Z,25.16
2023-05-01T09:50:32.387Z,25.31
2023-05-01T09:53:05.129Z,25.51
2023-05-01T09:55:33.559Z,25.80
2023-05-01T09:58:02.582Z,25.11
2023-05-01T10:00:30.313Z,24.72
2023-05-01T10:02:58.209Z,25.07
2023-05-01T10:05:26.294Z,24.78
2023-05-01T10:07:58.226Z,25.12
2023-05-01T10:10:25.895Z,24.72
2023-05-01T10:12:53.253Z,24.84
2023-05-01T10:15:26.163Z,25.13
2023-05-01T10:17:55.633Z,24.82
2023-05-01T10:20:23.229Z,24.53
2023-05-01T10:22:50.713Z,24.52
2023-05-01T10:25:20.079Z,24.52
2023-05-01T10:27:48.495Z,24.12
2023-05-01T10:30:17.347Z,24.45
2023-05-01T10:32:45.962Z,24.61
2023-05-01T10:35:16.270Z,24.92
2023-05-01T10:37:48.833Z,24.69
2023-05-01T10:40:43.919Z,24.77
2023-05-01T10:43:25.759Z,25.17
2023-05-01T10:46:12.778Z,25.06
2023-05-01T10:48:43.755Z,24.87
2023-05-01T10:51:11.495Z,24.94
2023-05-01T10:53:40.726Z,24.50
2023-05-01T10:56:26.994Z,24.64
2023-05-01T10:59:04.716Z,24.54
2023-05-01T11:01:39.743Z,24.72
2023-05-01T11:04:22.856Z,24.58
2023-05-01T11:07:05.630Z,23.90
2023-05-01T11:09:54.674Z,24.24
2023-05-01T11:12:46.999Z,24.46
2023-05-01T11:15:33.982Z,24.07
2023-05-01T11:18:02.450Z,24.54
2023-05-01T11:20:36.461Z,23.98
2023-05-01T11:23:03.913Z,24.47
2023-05-01T11:25:31.886Z,24.34
2023-05-01T11:28:01.742Z,24.56
2023-05-01T11:30:42.013Z,24.17
2023-05-01T11:33:10.881Z,23.93
2023-05-01T11:35:39.274Z,24.33
2023-05-01T11:38:06.753Z,24.11
2023-05-01T11:40:35.039Z,24.49
2023-05-01T11:43:04.483Z,24.80
2023-05-01T11:45:33.094Z,24.49
2023-05-01T11:48:04.523Z,24.91
2023-05-01T11:50:37.180Z,24.66
2023-05-01T11:53:11.855Z,24.84
2023-05-01T11:55:40.258Z,25.06
2023-05-01T11:58:08.136Z,25.00
2023-05-01T12:00:38.027Z,24.86
2023-05-01T12:03:10.316Z,24.99
2023-05-01T12:05:39.877Z,24.91
2023-05-01T12:08:20.884Z,24.41
2023-05-01T12:10:52.283Z,24.70
2023-05-01T12:13:20.655Z,24.83
2023-05-01T12:15:52.480Z,25.05
2023-05-01T12:18:23.638Z,24.42
2023-05-01T12:20:52.946Z,24.92
2023-05-01T12:23:34.745Z,24.68
2023-05-01T12:26:05.247Z,24.58
2023-05-01T12:28:32.953Z,24.67
2023-05-01T12:31:05.489Z,24.74
2023-05-01T12:33:33.381Z,25.10
2023-05-01T12:36:11.859Z,25.09
2023-05-01T12:38:39.611Z,25.19
2023-05-01T12:41:09.372Z,25.62
2023-05-01T12:43:38.024Z,24.92
2023-05-01T12:46:06.102Z,25.11
2023-05-01T12:48:34.357Z,24.96
2023-05-01T12:51:04.982Z,24.90
2023-05-01T12:53:33.494Z,25.25
2023-05-01T12:56:03.180Z,25.01
2023-05-01T12:58:37.974Z,25.07
2023-05-01T13:01:06.739Z,25.05
2023-05-01T13:03:35.317Z,25.50
2023-05-01T13:06:05.856Z,25.19
2023-05-01T13:08:36.796Z,25.20
2023-05-01T13:11:17.451Z,24.89
2023-05-01T13:13:45.949Z,24.81
2023-05-01T13:16:16.994Z,25.13
2023-05-01T13:18:44.672Z,25.73
2023-05-01T13:21:14.686Z,25.35
2023-05-01T13:23:43.966Z,25.29
2023-05-01T13:26:12.189Z,25.57
2023-05-01T13:28:46.683Z,25.74
2023-05-01T13:31:15.089Z,25.57
2023-05-01T13:33:45.642Z,25.33
2023-05-01T13:36:25.167Z,26.00
2023-05-01T13:38:57.007Z,25.33
2023-05-01T13:41:26.161Z,25.18
2023-05-01T13:43:55.934Z,25.14
2023-05-01T13:46:25.804Z,24.93
2023-05-01T13:48:53.588Z,24.59
2023-05-01T13:51:26.417Z,24.59
2023-05-01T13:53:59.377Z,24.57
2023-05-01T13:56:26.864Z,25.01
2023-05-01T13:58:54.564Z,25.06
2023-05-01T14:01:22.699Z,25.27
2023-05-01T14:03:50.777Z,25.04
2023-05-01T14:06:21.370Z,25.24
2023-05-01T14:08:49.172Z,25.31
2023-05-01T14:11:18.201Z,25.15
2023-05-01T14:13:51.069Z,24.52
2023-05-01T14:16:27.187Z,24.70
2023-05-01T14:18:57.154Z,24.52
2023-05-01T14:21:27.932Z,24.85
2023-05-01T14:23:57.202Z,24.63
2023-05-01T14:26:25.052Z,24.92
2023-05-01T14:28:52.781Z,25.15
2023-05-01T14:31:27.655Z,24.96
2023-05-01T14:33:57.869Z,25.19
2023-05-01T14:36:25.578Z,25.03
2023-05-01T14:38:56.307Z,25.22
2023-05-01T14:41:24.188Z,25.03
2023-05-01T14:43:54.256Z,24.87
2023-05-01T14:46:32.736Z,24.88
2023-05-01T14:49:03.636Z,25.01
2023-05-01T14:51:32.304Z,25.08
2023-05-01T14:54:00.273Z,24.96
2023-05-01T14:56:27.802Z,25.20
2023-05-01T14:58:55.407Z,25.19
2023-05-01T15:01:23.324Z,24.94
2023-05-01T15:03:50.922Z,24.96
2023-05-01T15:06:18.459Z,24.86
2023-05-01T15:08:46.885Z,25.20
2023-05-01T15:11:14.483Z,24.59
2023-05-01T15:13:44.160Z,24.87
2023-05-01T15:16:12.166Z,25.22
2023-05-01T15:18:39.910Z,25.08
2023-05-01T15:21:07.412Z,25.08
2023-05-01T15:23:36.909Z,25.25
2023-05-01T15:26:04.297Z,25.26
2023-05-01T15:28:32.543Z,25.13
2023-05-01T15:31:00.215Z,25.59
2023-05-01T15:33:27.783Z,25.44
2023-05-01T15:35:55.490Z,25.31
2023-05-01T15:38:24.114Z,25.54
2023-05-01T15:40:52.036Z,25.70
2023-05-01T15:43:19.480Z,25.72
2023-05-01T15:45:47.409Z,25.91
2023-05-01T15:48:14.875Z,26.21
2023-05-01T15:50:42.549Z,26.15
2023-05-01T15:53:10.353Z,25.99
2023-05-01T15:55:37.774Z,26.02
2023-05-01T15:58:05.221Z,26.31
2023-05-01T16:00:38.181Z,26.35
2023-05-01T16:03:07.733Z,26.27
2023-05-01T16:05:36.837Z,26.25
2023-05-01T16:08:05.925Z,27.00
2023-05-01T16:10:37.329Z,27.25
2023-05-01T16:13:08.771Z,26.86
2023-05-01T16:15:37.058Z,26.58
2023-05-01T16:18:05.058Z,26.33
2023-05-01T16:20:41.874Z,26.46
2023-05-01T16:23:09.667Z,26.18
2023-05-01T16:25:42.354Z,26.38
2023-05-01T16:28:10.259Z,26.27
2023-05-01T16:30:41.891Z,26.29
2023-05-01T16:33:18.260Z,26.05
2023-05-01T16:35:48.313Z,26.47
2023-05-01T16:38:17.082Z,26.55
2023-05-01T16:40:46.012Z,26.67
2023-05-01T16:43:13.665Z,27.15
2023-05-01T16:45:41.916Z,27.10
2023-05-01T16:48:09.478Z,26.95
2023-05-01T16:50:40.094Z,27.15
2023-05-01T16:53:07.987Z,27.01
2023-05-01T16:55:35.606Z,26.99
2023-05-01T16:58:03.113Z,26.89
2023-05-01T17:00:31.329Z,26.96
2023-05-01T17:02:59.128Z,26.90
2023-05-01T17:05:26.952Z,26.81
2023-05-01T17:07:54.604Z,26.97
2023-05-01T17:10:22.021Z,26.76
2023-05-01T17:12:49.517Z,26.89
2023-05-01T17:15:18.183Z,26.71
2023-05-01T17:17:45.633Z,26.81
2023-05-01T17:20:14.006Z,26.69
2023-05-01T17:22:41.893Z,26.65
2023-05-01T17:25:09.458Z,26.60
2023-05-01T17:27:37.703Z,26.68
2023-05-01T17:30:06.059Z,26.67
2023-05-01T17:32:36.996Z,26.72
2023-05-01T17:35:06.093Z,26.90
2023-05-01T17:37:33.481Z,26.73
2023-05-01T17:40:01.449Z,26.93
2023-05-01T17:42:29.513Z,26.81
2023-05-01T17:44:56.911Z,26.72
2023-05-01T17:47:26.111Z,26.75
2023-05-01T17:49:54.300Z,26.67
2023-05-01T17:52:21.791Z,26.82
2023-05-01T17:54:49.318Z,26.93
2023-05-01T17:57:17.149Z,26.99
2023-05-01T17:59:44.805Z,27.13
2023-05-01T18:02:12.517Z,26.88
2023-05-01T18:04:40.401Z,26.91
2023-05-01T18:07:07.848Z,27.06
2023-05-01T18:09:35.419Z,26.92
2023-05-01T18:12:03.241Z,26.92
2023-05-01T18:14:30.711Z,27.21
2023-05-01T18:16:58.300Z,27.33
2023-05-01T18:19:26.103Z,27.43
2023-05-01T18:21:53.515Z,27.61
2023-05-01T18:24:21.101Z,28.04
2023-05-01T18:26:48.896Z,28.42
2023-05-01T18:29:16.477Z,28.46
2023-05-01T18:31:43.974Z,28.75
2023-05-01T18:34:12.626Z,28.99
2023-05-01T18:36:43.661Z,29.11
2023-05-01T18:39:13.390Z,29.38
2023-05-01T18:41:40.776Z,29.68
2023-05-01T18:44:08.202Z,29.98
2023-05-01T18:46:36.876Z,30.22
2023-05-01T18:49:04.526Z,30.16
2023-05-01T18:51:32.316Z,30.57
2023-05-01T18:54:02.062Z,31.02
2023-05-01T18:56:31.077Z,31.63
2023-05-01T18:58:58.583Z,32.17
2023-05-01T19:01:26.410Z,31.89
2023-05-01T19:03:58.873Z,32.08
2023-05-01T19:06:26.974Z,32.32
2023-05-01T19:08:54.630Z,32.76
2023-05-01T19:11:22.300Z,32.92
2023-05-01T19:13:52.668Z,33.16
2023-05-01T19:16:22.720Z,33.51
2023-05-01T19:18:50.605Z,33.67
2023-05-01T19:21:18.176Z,33.74
2023-05-01T19:23:46.580Z,33.92
2023-05-01T19:26:14.701Z,33.98
2023-05-01T19:28:42.465Z,34.42
2023-05-01T19:31:12.342Z,34.45
2023-05-01T19:33:41.203Z,34.69
2023-05-01T19:36:08.714Z,34.71
2023-05-01T19:38:36.219Z,34.95
2023-05-01T19:41:12.049Z,35.45
2023-05-01T19:43:45.030Z,35.51
2023-05-01T19:46:12.809Z,35.67
2023-05-01T19:48:40.504Z,35.74
2023-05-01T19:51:07.925Z,35.90
2023-05-01T19:53:36.214Z,35.95
2023-05-01T19:56:03.735Z,36.30
2023-05-01T19:58:31.214Z,36.56
2023-05-01T20:01:02.218Z,36.97
2023-05-01T20:03:30.032Z,37.31
2023-05-01T20:05:57.524Z,37.75
2023-05-01T20:08:25.170Z,38.05
2023-05-01T20:10:52.873Z,38.28
2023-05-01T20:13:20.273Z,38.39
2023-05-01T20:15:47.689Z,38.50
2023-05-01T20:18:16.763Z,38.62
2023-05-01T20:20:44.199Z,39.00
2023-05-01T20:23:15.915Z,39.05
2023-05-01T20:25:43.899Z,39.37
2023-05-01T20:28:12.975Z,39.41
2023-05-01T20:30:41.213Z,39.65
2023-05-01T20:33:09.299Z,39.70
2023-05-01T20:35:37.172Z,39.96
2023-05-01T20:38:05.069Z,40.28
2023-05-01T20:40:33.495Z,40.12
2023-05-01T20:43:00.914Z,40.39
2023-05-01T20:45:31.888Z,40.68
2023-05-01T20:48:00.157Z,40.82
2023-05-01T20:50:28.129Z,41.09
2023-05-01T20:52:56.361Z,41.49
2023-05-01T20:55:24.270Z,41.75
2023-05-01T20:57:51.706Z,41.89
2023-05-01T21:00:19.142Z,41.90
2023-05-01T21:02:47.079Z,42.07
2023-05-01T21:05:16.244Z,42.13
2023-05-01T21:07:43.730Z,42.13
2023-05-01T21:10:12.081Z,42.37
2023-05-01T21:12:40.025Z,42.48
2023-05-01T21:15:08.062Z,42.81
2023-05-01T21:17:36.394Z,42.74
2023-05-01T21:20:16.732Z,42.94
2023-05-01T21:22:45.685Z,42.80
2023-05-01T21:25:15.443Z,42.81
2023-05-01T21:27:42.845Z,43.18
2023-05-01T21:30:15.342Z,43.20
2023-05-01T21:32:42.982Z,43.42
2023-05-01T21:35:11.533Z,43.38
2023-05-01T21:37:48.718Z,43.48
2023-05-01T21:40:21.345Z,43.63
2023-05-01T21:42:48.855Z,43.94
2023-05-01T21:45:18.291Z,44.07
2023-05-01T21:47:47.785Z,44.11
2023-05-01T21:50:17.746Z,43.83
2023-05-01T21:52:46.620Z,44.08
2023-05-01T21:55:20.428Z,44.39
2023-05-01T21:57:49.996Z,44.39
2023-05-01T22:00:18.951Z,44.44
2023-05-01T22:02:48.660Z,44.55
2023-05-01T22:05:18.776Z,44.86
2023-05-01T22:07:47.089Z,45.04
2023-05-01T22:10:17.037Z,45.02
2023-05-01T22:12:45.334Z,45.25
2023-05-01T22:15:15.529Z,45.31
2023-05-01T22:17:44.426Z,45.45
2023-05-01T22:20:12.245Z,45.44
2023-05-01T22:22:41.173Z,45.33
2023-05-01T22:25:09.870Z,45.57
2023-05-01T22:27:37.616Z,45.64
2023-05-01T22:30:05.746Z,45.65
2023-05-01T22:32:33.938Z,45.47
2023-05-01T22:35:01.681Z,45.77
2023-05-01T22:37:30.155Z,45.83
2023-05-01T22:39:58.346Z,45.86
2023-05-01T22:42:26.164Z,46.21
2023-05-01T22:44:53.569Z,46.34
2023-05-01T22:47:21.210Z,46.09
2023-05-01T22:49:48.666Z,46.05
2023-05-01T22:52:16.276Z,46.05
2023-05-01T22:54:43.945Z,46.29
2023-05-01T22:57:11.440Z,46.36
2023-05-01T22:59:40.474Z,46.37
2023-05-01T23:02:08.611Z,46.52
2023-05-01T23:04:36.413Z,46.74
2023-05-01T23:07:03.891Z,46.72
2023-05-01T23:09:32.378Z,46.97
2023-05-01T23:11:59.953Z,47.08
2023-05-01T23:14:27.630Z,47.13
2023-05-01T23:16:55.291Z,47.28
2023-05-01T23:19:24.576Z,47.29
2023-05-01T23:22:06.932Z,47.50
2023-05-01T23:24:43.263Z,47.35
2023-05-01T23:27:12.305Z,47.20
2023-05-01T23:29:40.589Z,47.60
2023-05-01T23:32:26.791Z,47.79
2023-05-01T23:34:55.560Z,47.92
2023-05-01T23:37:23.281Z,48.21
2023-05-01T23:39:52.487Z,48.57
2023-05-01T23:42:21.338Z,48.35
2023-05-01T23:44:48.887Z,48.36
2023-05-01T23:47:16.449Z,48.45
2023-05-01T23:49:44.232Z,48.52
2023-05-01T23:52:12.021Z,48.43
2023-05-01T23:54:39.412Z,48.85
2023-05-01T23:57:07.086Z,48.61
2023-05-01T23:59:35.394Z,48.62
